Terminal Aerodrome Forecast
Issued by NWS Duluth, MN

Home | Current Version | Previous Version | Text Only | Print | Product List | Glossary On
Versions: 1 2 3 4 5 6 7 8 9 10 11 12 13 14 15 16 17 18
877
FTUS43 KDLH 241139
TAFINL
TAF
KINL 241139Z 2412/2512 35016G23KT P6SM BKN024
     FM241600 34016G24KT P6SM SCT025
     FM242300 31009G16KT P6SM BKN150
     FM250300 29004KT P6SM BKN050
     FM250600 VRB03KT P6SM VCSH BKN030=

USA.gov is the U.S. government's official web portal to all federal, state and local government web resources and services.